createdAt,value
2023-07-16T00:00:55.379Z,100589.41
2023-07-16T00:03:29.973Z,100594.53
2023-07-16T00:06:05.827Z,100588.59
2023-07-16T00:08:47.621Z,100593.31
2023-07-16T00:11:28.354Z,100592.13
2023-07-16T00:13:58.284Z,100592.50
2023-07-16T00:16:39.099Z,100584.13
2023-07-16T00:19:22.710Z,100584.13
2023-07-16T00:21:57.528Z,100585.28
2023-07-16T00:24:29.047Z,100581.34
2023-07-16T00:27:05.419Z,100590.41
2023-07-16T00:29:40.686Z,100584.06
2023-07-16T00:32:31.111Z,100578.50
2023-07-16T00:35:18.220Z,100580.50
2023-07-16T00:37:55.246Z,100576.53
2023-07-16T00:40:28.844Z,100573.41
2023-07-16T00:43:04.935Z,100580.06
2023-07-16T00:45:41.073Z,100568.59
2023-07-16T00:48:26.388Z,100578.84
2023-07-16T00:51:01.176Z,100577.56
2023-07-16T00:53:39.300Z,100577.16
2023-07-16T00:56:15.015Z,100582.69
2023-07-16T00:58:50.921Z,100585.03
2023-07-16T01:01:31.990Z,100568.41
2023-07-16T01:04:11.528Z,100583.47
2023-07-16T01:07:00.334Z,100579.13
2023-07-16T01:09:47.351Z,100582.66
2023-07-16T01:12:31.617Z,100578.69
2023-07-16T01:15:19.824Z,100571.97
2023-07-16T01:17:57.876Z,100574.78
2023-07-16T01:20:46.050Z,100570.00
2023-07-16T01:23:45.750Z,100572.78
2023-07-16T01:26:45.802Z,100555.78
2023-07-16T01:29:56.096Z,100556.56
2023-07-16T01:32:32.240Z,100564.47
2023-07-16T01:35:10.807Z,100563.25
2023-07-16T01:37:47.592Z,100559.69
2023-07-16T01:40:39.873Z,100561.25
2023-07-16T01:43:17.759Z,100562.41
2023-07-16T01:45:59.117Z,100552.97
2023-07-16T01:48:45.446Z,100546.63
2023-07-16T01:51:26.216Z,100559.22
2023-07-16T01:54:00.006Z,100560.44
2023-07-16T01:56:40.642Z,100550.53
2023-07-16T01:59:19.057Z,100559.63
2023-07-16T02:01:52.878Z,100546.59
2023-07-16T02:04:28.146Z,100556.84
2023-07-16T02:06:59.427Z,100551.69
2023-07-16T02:09:38.206Z,100549.66
2023-07-16T02:12:13.729Z,100550.88
2023-07-16T02:14:52.029Z,100542.97
2023-07-16T02:17:34.053Z,100553.22
2023-07-16T02:20:12.083Z,100546.88
2023-07-16T02:22:53.228Z,100555.13
2023-07-16T02:25:34.958Z,100555.94
2023-07-16T02:28:21.684Z,100565.31
2023-07-16T02:30:59.855Z,100552.34
2023-07-16T02:33:46.023Z,100545.59
2023-07-16T02:36:41.440Z,100555.44
2023-07-16T02:39:14.374Z,100557.38
2023-07-16T02:42:05.650Z,100561.28
2023-07-16T02:44:43.394Z,100561.63
2023-07-16T02:47:21.083Z,100565.53
2023-07-16T02:50:06.966Z,100561.53
2023-07-16T02:52:49.511Z,100558.31
2023-07-16T02:55:28.382Z,100559.13
2023-07-16T02:58:15.699Z,100566.19
2023-07-16T03:00:54.302Z,100560.63
2023-07-16T03:03:35.412Z,100544.38
2023-07-16T03:06:27.064Z,100559.78
2023-07-16T03:09:06.812Z,100559.78
2023-07-16T03:11:37.968Z,100559.28
2023-07-16T03:14:12.332Z,100558.16
2023-07-16T03:16:55.616Z,100559.69
2023-07-16T03:19:36.951Z,100563.22
2023-07-16T03:22:14.343Z,100566.69
2023-07-16T03:24:53.765Z,100568.22
2023-07-16T03:27:32.944Z,100563.44
2023-07-16T03:30:11.146Z,100572.88
2023-07-16T03:32:53.341Z,100575.22
2023-07-16T03:35:45.579Z,100570.94
2023-07-16T03:38:30.864Z,100569.72
2023-07-16T03:41:12.386Z,100565.78
2023-07-16T03:43:53.768Z,100571.28
2023-07-16T03:46:34.673Z,100575.97
2023-07-16T03:49:17.925Z,100573.97
2023-07-16T03:51:55.611Z,100572.44
2023-07-16T03:54:36.124Z,100571.25
2023-07-16T03:57:13.862Z,100576.78
2023-07-16T03:59:50.282Z,100564.59
2023-07-16T04:02:25.382Z,100582.28
2023-07-16T04:05:12.304Z,100579.59
2023-07-16T04:07:49.272Z,100577.22
2023-07-16T04:10:35.155Z,100578.81
2023-07-16T04:13:11.298Z,100582.34
2023-07-16T04:16:01.020Z,100580.38
2023-07-16T04:18:35.565Z,100577.72
2023-07-16T04:21:10.855Z,100575.38
2023-07-16T04:23:43.754Z,100578.22
2023-07-16T04:26:23.590Z,100579.44
2023-07-16T04:29:03.219Z,100581.44
2023-07-16T04:31:41.394Z,100576.34
2023-07-16T04:34:13.022Z,100578.75
2023-07-16T04:36:47.330Z,100583.50
2023-07-16T04:39:28.070Z,100587.84
2023-07-16T04:42:07.381Z,100589.50
2023-07-16T04:44:44.663Z,100586.00
2023-07-16T04:47:19.749Z,100593.16
2023-07-16T04:49:56.325Z,100593.16
2023-07-16T04:52:31.879Z,100559.59
2023-07-16T04:55:21.553Z,100576.72
2023-07-16T04:57:59.292Z,100598.50
2023-07-16T05:00:33.849Z,100588.31
2023-07-16T05:03:13.822Z,100591.09
2023-07-16T05:05:55.493Z,100595.81
2023-07-16T05:08:31.734Z,100596.25
2023-07-16T05:11:21.922Z,100601.03
2023-07-16T05:14:24.018Z,100585.69
2023-07-16T05:17:04.225Z,100598.00
2023-07-16T05:19:44.320Z,100599.22
2023-07-16T05:22:21.102Z,100599.25
2023-07-16T05:25:03.998Z,100606.41
2023-07-16T05:27:42.563Z,100598.19
2023-07-16T05:30:20.416Z,100611.22
2023-07-16T05:33:03.090Z,100608.13
2023-07-16T05:35:46.344Z,100606.97
2023-07-16T05:38:20.845Z,100615.25
2023-07-16T05:40:57.351Z,100606.19
2023-07-16T05:43:32.405Z,100618.09
2023-07-16T05:46:22.126Z,100616.97
2023-07-16T05:49:05.597Z,100616.19
2023-07-16T05:51:51.842Z,100619.38
2023-07-16T05:54:34.488Z,100630.06
2023-07-16T05:57:18.149Z,100630.06
2023-07-16T06:00:07.393Z,100626.50
2023-07-16T06:03:05.745Z,100626.50
2023-07-16T06:05:38.898Z,100629.78
2023-07-16T06:08:21.195Z,100637.66
2023-07-16T06:11:03.651Z,100632.94
2023-07-16T06:13:37.289Z,100645.56
2023-07-16T06:16:20.581Z,100635.72
2023-07-16T06:19:01.337Z,100638.47
2023-07-16T06:21:44.327Z,100644.41
2023-07-16T06:24:26.633Z,100631.38
2023-07-16T06:26:57.539Z,100648.00
2023-07-16T06:29:30.720Z,100644.03
2023-07-16T06:32:15.745Z,100644.81
2023-07-16T06:34:59.019Z,100646.41
2023-07-16T06:37:49.840Z,100644.78
2023-07-16T06:40:40.383Z,100644.03
2023-07-16T06:43:15.458Z,100647.97
2023-07-16T06:45:58.816Z,100653.47
2023-07-16T06:48:38.156Z,100644.75
2023-07-16T06:51:22.313Z,100651.03
2023-07-16T06:53:58.850Z,100658.91
2023-07-16T06:56:41.925Z,100641.09
2023-07-16T06:59:29.264Z,100655.69
2023-07-16T07:02:07.279Z,100654.84
2023-07-16T07:04:42.175Z,100654.03
2023-07-16T07:07:22.247Z,100634.63
2023-07-16T07:09:57.792Z,100641.69
2023-07-16T07:12:41.988Z,100648.72
2023-07-16T07:15:16.896Z,100648.66
2023-07-16T07:17:57.741Z,100641.16
2023-07-16T07:20:32.791Z,100653.75
2023-07-16T07:23:11.366Z,100653.72
2023-07-16T07:25:50.570Z,100646.56
2023-07-16T07:28:31.615Z,100651.28
2023-07-16T07:31:08.053Z,100642.19
2023-07-16T07:33:43.689Z,100648.06
2023-07-16T07:36:16.699Z,100642.13
2023-07-16T07:38:55.320Z,100654.34
2023-07-16T07:41:30.154Z,100647.94
2023-07-16T07:44:09.683Z,100642.75
2023-07-16T07:46:49.072Z,100651.81
2023-07-16T07:49:33.308Z,100657.34
2023-07-16T07:52:16.565Z,100652.50
2023-07-16T07:55:03.518Z,100650.16
2023-07-16T07:57:42.884Z,100647.63
2023-07-16T08:00:30.250Z,100627.91
2023-07-16T08:03:12.132Z,100651.22
2023-07-16T08:05:47.945Z,100638.78
2023-07-16T08:08:22.688Z,100649.03
2023-07-16T08:11:01.751Z,100647.38
2023-07-16T08:13:43.628Z,100634.72
2023-07-16T08:16:24.010Z,100650.56
2023-07-16T08:19:02.268Z,100655.22
2023-07-16T08:21:47.101Z,100656.75
2023-07-16T08:24:28.137Z,100651.16
2023-07-16T08:27:16.512Z,100649.84
2023-07-16T08:29:58.082Z,100647.72
2023-07-16T08:32:38.595Z,100642.84
2023-07-16T08:35:19.784Z,100650.69
2023-07-16T08:38:05.426Z,100653.38
2023-07-16T08:40:49.990Z,100649.63
2023-07-16T08:43:37.278Z,100660.59
2023-07-16T08:46:11.872Z,100656.50
2023-07-16T08:48:47.105Z,100659.88
2023-07-16T08:51:23.536Z,100652.25
2023-07-16T08:54:18.681Z,100645.31
2023-07-16T08:56:55.402Z,100650.63
2023-07-16T08:59:41.920Z,100646.28
2023-07-16T09:02:25.143Z,100646.91
2023-07-16T09:05:07.234Z,100645.19
2023-07-16T09:07:54.335Z,100648.56
2023-07-16T09:10:35.183Z,100643.25
2023-07-16T09:13:10.801Z,100640.34
2023-07-16T09:15:47.572Z,100634.91
2023-07-16T09:18:29.757Z,100641.13
2023-07-16T09:21:16.064Z,100641.47
2023-07-16T09:23:58.039Z,100641.84
2023-07-16T09:26:31.363Z,100632.56
2023-07-16T09:29:12.789Z,100634.78
2023-07-16T09:32:13.686Z,100636.91
2023-07-16T09:34:57.025Z,100631.53
2023-07-16T09:37:37.076Z,100637.25
2023-07-16T09:40:20.162Z,100631.88
2023-07-16T09:42:57.149Z,100640.34
2023-07-16T09:45:40.585Z,100641.75
2023-07-16T09:48:23.471Z,100623.72
2023-07-16T09:51:09.389Z,100625.56
2023-07-16T09:53:52.041Z,100627.63
2023-07-16T09:56:27.646Z,100629.94
2023-07-16T09:59:02.576Z,100627.31
2023-07-16T10:01:49.949Z,100632.72
2023-07-16T10:04:46.874Z,100619.13
2023-07-16T10:07:28.828Z,100624.16
2023-07-16T10:10:10.847Z,100621.88
2023-07-16T10:12:48.563Z,100617.09
2023-07-16T10:15:37.324Z,100622.47
2023-07-16T10:18:14.169Z,100621.09
2023-07-16T10:20:59.644Z,100616.63
2023-07-16T10:23:56.925Z,100617.66
2023-07-16T10:26:43.711Z,100617.44
2023-07-16T10:29:23.259Z,100614.47
2023-07-16T10:32:01.872Z,100613.72
2023-07-16T10:34:38.262Z,100614.22
2023-07-16T10:37:20.673Z,100622.19
2023-07-16T10:39:59.598Z,100607.22
2023-07-16T10:42:37.164Z,100607.59
2023-07-16T10:45:14.792Z,100618.53
2023-07-16T10:48:00.641Z,100594.06
2023-07-16T10:50:32.398Z,100608.16
2023-07-16T10:53:20.935Z,100610.59
2023-07-16T10:56:04.857Z,100606.22
2023-07-16T10:58:40.592Z,100605.44
2023-07-16T11:01:18.606Z,100606.06
2023-07-16T11:03:56.292Z,100599.16
2023-07-16T11:06:52.538Z,100598.97
2023-07-16T11:09:34.864Z,100593.16
2023-07-16T11:12:18.217Z,100586.59
2023-07-16T11:14:56.621Z,100602.31
2023-07-16T11:17:39.066Z,100580.50
2023-07-16T11:20:29.932Z,100597.38
2023-07-16T11:23:08.366Z,100597.72
2023-07-16T11:25:51.405Z,100594.69
2023-07-16T11:28:29.899Z,100599.28
2023-07-16T11:31:03.821Z,100585.75
2023-07-16T11:33:50.102Z,100592.69
2023-07-16T11:36:31.432Z,100587.22
2023-07-16T11:39:13.592Z,100585.78
2023-07-16T11:42:06.663Z,100579.72
2023-07-16T11:44:47.242Z,100586.69
2023-07-16T11:47:29.784Z,100582.53
2023-07-16T11:50:03.103Z,100551.91
2023-07-16T11:52:38.478Z,100576.47
2023-07-16T11:55:31.175Z,100586.25
2023-07-16T11:58:22.898Z,100592.00
2023-07-16T12:00:55.197Z,100587.22
2023-07-16T12:03:31.769Z,100582.06
2023-07-16T12:06:06.888Z,100584.53
2023-07-16T12:08:45.578Z,100580.22
2023-07-16T12:11:28.615Z,100575.19
2023-07-16T12:14:04.289Z,100577.78
2023-07-16T12:16:45.610Z,100576.97
2023-07-16T12:19:22.380Z,100579.53
2023-07-16T12:22:14.487Z,100575.38
2023-07-16T12:24:53.839Z,100570.06
2023-07-16T12:27:36.769Z,100570.56
2023-07-16T12:30:16.888Z,100573.25
2023-07-16T12:32:50.694Z,100563.88
2023-07-16T12:35:30.174Z,100558.88
2023-07-16T12:38:10.969Z,100569.16
2023-07-16T12:43:44.574Z,100545.00
2023-07-16T12:46:27.778Z,100575.88
2023-07-16T12:49:15.968Z,100572.59
2023-07-16T12:51:50.890Z,100568.66
2023-07-16T12:54:33.537Z,100570.69
2023-07-16T12:57:15.634Z,100578.94
2023-07-16T13:02:51.161Z,100571.94
2023-07-16T13:05:27.255Z,100573.66
2023-07-16T13:08:07.054Z,100573.28
2023-07-16T13:10:42.539Z,100565.22
2023-07-16T13:13:33.937Z,100576.53
2023-07-16T13:16:09.032Z,100573.47
2023-07-16T13:18:48.728Z,100568.97
2023-07-16T13:21:28.432Z,100548.66
2023-07-16T13:24:12.483Z,100575.13
2023-07-16T13:26:53.469Z,100564.25
2023-07-16T13:29:32.015Z,100534.34
2023-07-16T13:32:09.984Z,100555.81
2023-07-16T13:34:58.556Z,100551.69
2023-07-16T13:37:36.036Z,100555.16
2023-07-16T13:40:24.277Z,100556.94
2023-07-16T13:43:01.283Z,100555.75
2023-07-16T13:45:56.597Z,100556.06
2023-07-16T13:48:56.868Z,100552.19
2023-07-16T13:51:44.154Z,100565.72
2023-07-16T13:54:22.796Z,100558.69
2023-07-16T13:56:56.108Z,100553.53
2023-07-16T13:59:29.970Z,100555.91
2023-07-16T14:02:09.635Z,100556.66
2023-07-16T14:04:46.250Z,100553.72
2023-07-16T14:07:27.552Z,100548.88
2023-07-16T14:10:14.800Z,100544.13
2023-07-16T14:12:54.516Z,100551.38
2023-07-16T14:15:36.203Z,100548.78
2023-07-16T14:18:12.974Z,100528.16
2023-07-16T14:20:47.906Z,100544.94
2023-07-16T14:23:28.436Z,100545.50
2023-07-16T14:26:06.080Z,100543.94
2023-07-16T14:28:50.450Z,100539.50
2023-07-16T14:31:27.157Z,100537.53
2023-07-16T14:34:11.761Z,100530.88
2023-07-16T14:36:50.598Z,100541.22
2023-07-16T14:39:31.090Z,100542.56
2023-07-16T14:42:10.551Z,100523.28
2023-07-16T14:44:54.238Z,100532.78
2023-07-16T14:47:37.188Z,100531.25
2023-07-16T14:50:24.995Z,100533.56
2023-07-16T14:53:08.019Z,100525.41
2023-07-16T14:56:04.067Z,100519.41
2023-07-16T14:58:39.234Z,100526.97
2023-07-16T15:01:15.306Z,100524.81
2023-07-16T15:03:50.592Z,100526.28
2023-07-16T15:06:28.104Z,100528.63
2023-07-16T15:09:06.664Z,100529.44
2023-07-16T15:11:55.796Z,100524.59
2023-07-16T15:14:28.481Z,100525.16
2023-07-16T15:17:06.416Z,100515.59
2023-07-16T15:19:49.024Z,100515.16
2023-07-16T15:22:29.249Z,100510.72
2023-07-16T15:25:10.028Z,100516.00
2023-07-16T15:27:49.386Z,100512.38
2023-07-16T15:30:23.838Z,100515.59
2023-07-16T15:33:09.098Z,100517.25
2023-07-16T15:35:59.741Z,100507.44
2023-07-16T15:38:36.264Z,100513.25
2023-07-16T15:44:29.789Z,100506.00
2023-07-16T15:47:08.811Z,100505.34
2023-07-16T15:49:45.411Z,100510.81
2023-07-16T15:52:19.935Z,100492.13
2023-07-16T15:54:53.114Z,100510.69
2023-07-16T15:57:29.051Z,100509.28
2023-07-16T16:00:14.233Z,100508.19
2023-07-16T16:03:00.640Z,100506.16
2023-07-16T16:05:40.618Z,100510.84
2023-07-16T16:08:38.425Z,100518.16
2023-07-16T16:11:11.630Z,100505.25
2023-07-16T16:13:52.537Z,100522.25
2023-07-16T16:16:37.030Z,100517.38
2023-07-16T16:19:15.416Z,100502.41
2023-07-16T16:22:02.260Z,100512.72
2023-07-16T16:24:41.504Z,100517.69
2023-07-16T16:27:20.643Z,100522.69
2023-07-16T16:29:53.421Z,100505.00
2023-07-16T16:32:38.096Z,100513.88
2023-07-16T16:35:18.179Z,100521.69
2023-07-16T16:38:07.274Z,100526.31
2023-07-16T16:40:40.099Z,100520.38
2023-07-16T16:43:23.084Z,100520.97
2023-07-16T16:45:57.378Z,100530.44
2023-07-16T16:48:43.609Z,100528.84
2023-07-16T16:51:26.635Z,100536.22
2023-07-16T16:54:18.230Z,100538.97
2023-07-16T16:57:04.542Z,100524.63
2023-07-16T16:59:44.866Z,100529.53
2023-07-16T17:05:26.166Z,100545.09
2023-07-16T17:08:02.407Z,100526.56
2023-07-16T17:10:49.112Z,100543.44
2023-07-16T17:13:23.813Z,100553.84
2023-07-16T17:15:59.126Z,100559.13
2023-07-16T17:18:33.795Z,100550.88
2023-07-16T17:21:13.907Z,100532.69
2023-07-16T17:23:54.131Z,100541.09
2023-07-16T17:26:35.441Z,100558.97
2023-07-16T17:29:13.302Z,100560.97
2023-07-16T17:31:51.369Z,100561.19
2023-07-16T17:34:27.098Z,100561.84
2023-07-16T17:37:06.063Z,100563.84
2023-07-16T17:39:53.303Z,100558.56
2023-07-16T17:42:26.101Z,100561.84
2023-07-16T17:45:05.646Z,100570.34
2023-07-16T17:47:40.631Z,100566.16
2023-07-16T17:50:21.317Z,100558.66
2023-07-16T17:53:13.717Z,100566.19
2023-07-16T17:55:48.349Z,100566.50
2023-07-16T17:58:31.149Z,100560.75
2023-07-16T18:01:19.425Z,100564.13
2023-07-16T18:04:04.623Z,100559.41
2023-07-16T18:06:42.241Z,100565.75
2023-07-16T18:09:37.975Z,100573.69
2023-07-16T18:12:16.916Z,100555.25
2023-07-16T18:14:55.885Z,100568.47
2023-07-16T18:17:33.104Z,100555.63
2023-07-16T18:20:08.911Z,100551.22
2023-07-16T18:22:49.575Z,100549.03
2023-07-16T18:25:31.005Z,100574.53
2023-07-16T18:28:17.119Z,100573.66
2023-07-16T18:30:50.104Z,100574.38
2023-07-16T18:33:27.795Z,100579.47
2023-07-16T18:36:03.636Z,100577.44
2023-07-16T18:38:41.136Z,100581.63
2023-07-16T18:41:26.552Z,100591.84
2023-07-16T18:44:06.647Z,100587.72
2023-07-16T18:46:46.439Z,100592.19
2023-07-16T18:49:35.777Z,100598.28
2023-07-16T18:52:10.559Z,100602.34
2023-07-16T18:54:54.474Z,100598.50
2023-07-16T18:57:35.467Z,100606.50
2023-07-16T19:00:23.996Z,100596.91
2023-07-16T19:03:57.832Z,100602.97
2023-07-16T19:06:29.431Z,100608.72
2023-07-16T19:09:08.872Z,100611.84
2023-07-16T19:11:45.157Z,100607.47
2023-07-16T19:14:28.343Z,100607.22
2023-07-16T19:17:06.013Z,100621.72
2023-07-16T19:19:45.211Z,100597.72
2023-07-16T19:22:18.184Z,100616.34
2023-07-16T19:25:00.693Z,100620.47
2023-07-16T19:27:38.614Z,100631.34
2023-07-16T19:30:33.174Z,100627.13
2023-07-16T19:33:11.685Z,100630.91
2023-07-16T19:36:05.070Z,100629.88
2023-07-16T19:38:55.525Z,100641.19
2023-07-16T19:41:37.054Z,100633.75
2023-07-16T19:44:17.715Z,100635.81
2023-07-16T19:47:08.931Z,100638.78
2023-07-16T19:49:46.042Z,100626.56
2023-07-16T19:52:20.115Z,100631.28
2023-07-16T19:54:50.440Z,100638.13
2023-07-16T19:57:25.639Z,100644.56
2023-07-16T20:00:05.376Z,100645.13
2023-07-16T20:03:08.861Z,100638.84
2023-07-16T20:05:50.271Z,100639.22
2023-07-16T20:08:28.943Z,100630.63
2023-07-16T20:11:09.924Z,100639.91
2023-07-16T20:13:42.643Z,100603.09
2023-07-16T20:16:19.674Z,100636.97
2023-07-16T20:18:57.406Z,100642.88
2023-07-16T20:21:28.084Z,100635.78
2023-07-16T20:24:01.798Z,100633.84
2023-07-16T20:26:44.716Z,100634.00
2023-07-16T20:29:18.227Z,100640.72
2023-07-16T20:31:54.044Z,100645.03
2023-07-16T20:34:48.028Z,100643.84
2023-07-16T20:37:27.216Z,100651.88
2023-07-16T20:40:03.223Z,100639.72
2023-07-16T20:42:42.872Z,100649.31
2023-07-16T20:45:35.013Z,100644.53
2023-07-16T20:48:10.788Z,100640.63
2023-07-16T20:51:00.264Z,100614.03
2023-07-16T20:53:36.862Z,100640.94
2023-07-16T20:56:24.093Z,100641.75
2023-07-16T20:59:19.218Z,100644.91
2023-07-16T21:02:03.586Z,100643.34
2023-07-16T21:04:42.641Z,100631.94
2023-07-16T21:07:22.214Z,100647.69
2023-07-16T21:10:00.332Z,100646.53
2023-07-16T21:12:45.410Z,100646.53
2023-07-16T21:15:25.867Z,100638.69
2023-07-16T21:18:02.041Z,100648.16
2023-07-16T21:20:42.932Z,100644.22
2023-07-16T21:26:08.770Z,100645.13
2023-07-16T21:28:47.085Z,100654.69
2023-07-16T21:31:34.830Z,100644.41
2023-07-16T21:36:54.670Z,100655.56
2023-07-16T21:39:35.236Z,100630.81
2023-07-16T21:42:16.512Z,100661.19
2023-07-16T21:44:59.589Z,100649.38
2023-07-16T21:47:37.298Z,100662.88
2023-07-16T21:50:15.930Z,100661.31
2023-07-16T21:53:01.183Z,100671.22
2023-07-16T21:55:52.338Z,100675.66
2023-07-16T21:58:30.269Z,100660.72
2023-07-16T22:01:06.445Z,100670.53
2023-07-16T22:03:46.607Z,100665.06
2023-07-16T22:06:31.232Z,100672.63
2023-07-16T22:09:09.139Z,100679.75
2023-07-16T22:11:48.867Z,100679.03
2023-07-16T22:14:35.461Z,100673.53
2023-07-16T22:17:12.825Z,100677.16
2023-07-16T22:19:48.454Z,100661.00
2023-07-16T22:22:30.317Z,100680.78
2023-07-16T22:25:15.330Z,100677.63
2023-07-16T22:27:59.898Z,100689.56
2023-07-16T22:30:35.540Z,100684.03
2023-07-16T22:33:10.914Z,100688.03
2023-07-16T22:35:54.683Z,100692.03
2023-07-16T22:38:36.660Z,100691.66
2023-07-16T22:41:16.313Z,100659.31
2023-07-16T22:43:56.980Z,100689.31
2023-07-16T22:46:35.945Z,100688.53
2023-07-16T22:49:19.698Z,100689.34
2023-07-16T22:51:58.724Z,100688.97
2023-07-16T22:54:35.245Z,100690.59
2023-07-16T22:57:16.313Z,100687.44
2023-07-16T22:59:57.599Z,100681.91
2023-07-16T23:02:30.127Z,100688.59
2023-07-16T23:05:24.526Z,100693.38
2023-07-16T23:08:08.752Z,100690.63
2023-07-16T23:10:47.362Z,100674.00
2023-07-16T23:13:24.852Z,100692.19
2023-07-16T23:16:08.000Z,100698.53
2023-07-16T23:18:50.035Z,100685.50
2023-07-16T23:21:25.275Z,100679.56
2023-07-16T23:24:00.207Z,100671.69
2023-07-16T23:26:40.817Z,100679.56
2023-07-16T23:29:19.876Z,100691.41
2023-07-16T23:32:02.631Z,100687.88
2023-07-16T23:34:41.906Z,100683.91
2023-07-16T23:37:15.842Z,100683.94
2023-07-16T23:39:53.443Z,100687.88
2023-07-16T23:42:36.108Z,100687.09
2023-07-16T23:45:32.611Z,100656.69
2023-07-16T23:48:16.190Z,100674.88
2023-07-16T23:50:52.040Z,100675.63
2023-07-16T23:53:34.036Z,100676.41
2023-07-16T23:56:04.300Z,100678.41
2023-07-16T23:58:37.224Z,100673.66
